Time;durP1;ratioP1;P1;durP2;ratioP2;P2;SDS_P1;SDS_P2;PMS_P1;PMS_P2;Temp;Humidity;BMP_temperature;BMP_pressure;BME280_temperature;BME280_humidity;BME280_pressure;Samples;Min_cycle;Max_cycle;Signal;HPM_P1;HPM_P2
2023/09/15 00:00:20;;;;;;;24.00;16.40;;;;;;;19.57;64.31;102105.63;5030832;28;20063;-74
2023/09/15 00:02:47;;;;;;;22.65;16.23;;;;;;;19.62;64.03;102110.00;5028034;28;20100;-74
2023/09/15 00:05:15;;;;;;;24.75;16.70;;;;;;;19.59;64.17;102101.19;5030325;28;20026;-74
2023/09/15 00:07:41;;;;;;;27.63;16.80;;;;;;;19.58;64.03;102104.72;5030354;28;20064;-74
2023/09/15 00:10:07;;;;;;;23.50;16.50;;;;;;;19.38;64.74;102108.28;5029617;28;20025;-74
2023/09/15 00:12:35;;;;;;;26.40;17.17;;;;;;;19.48;64.70;102106.50;5029575;28;20033;-73
2023/09/15 00:15:07;;;;;;;25.33;17.55;;;;;;;19.48;64.58;102101.22;5030804;28;20029;-74
2023/09/15 00:17:41;;;;;;;24.20;17.67;;;;;;;19.39;64.81;102102.09;5030719;28;20033;-74
2023/09/15 00:20:13;;;;;;;25.98;18.10;;;;;;;19.31;65.05;102103.03;5030959;28;20061;-75
2023/09/15 00:22:49;;;;;;;28.70;18.73;;;;;;;19.13;65.64;102100.44;5030021;28;20495;-74
2023/09/15 00:25:28;;;;;;;25.92;18.58;;;;;;;19.16;65.57;102097.75;5030147;28;20044;-74
2023/09/15 00:27:59;;;;;;;28.40;18.02;;;;;;;19.38;64.68;102103.00;5030302;28;20120;-73
2023/09/15 00:30:28;;;;;;;28.52;19.08;;;;;;;19.46;64.31;102097.69;5029747;28;20044;-74
2023/09/15 00:32:54;;;;;;;25.58;18.88;;;;;;;19.36;64.52;102098.59;5030481;28;20026;-74
2023/09/15 00:35:22;;;;;;;26.08;18.80;;;;;;;19.29;64.72;102088.91;5029753;28;20088;-74
2023/09/15 00:37:49;;;;;;;29.45;18.25;;;;;;;19.24;65.00;102096.88;5028472;28;20129;-74
2023/09/15 00:40:16;;;;;;;24.85;17.42;;;;;;;19.10;65.15;102092.50;5029800;28;20025;-74
2023/09/15 00:42:44;;;;;;;27.15;18.95;;;;;;;19.27;64.95;102099.47;5030545;28;20057;-73
2023/09/15 00:45:19;;;;;;;27.45;19.40;;;;;;;19.27;64.86;102098.63;5030720;28;20067;-75
2023/09/15 00:47:47;;;;;;;25.20;19.23;;;;;;;19.30;64.57;102098.59;5029498;28;20045;-74
2023/09/15 00:50:20;;;;;;;25.10;18.65;;;;;;;19.22;64.72;102097.75;5029434;28;20030;-73
2023/09/15 00:52:49;;;;;;;25.45;18.50;;;;;;;19.21;64.97;102096.88;5027903;28;20042;-75
2023/09/15 00:55:21;;;;;;;27.75;19.67;;;;;;;19.03;65.71;102094.25;5029529;28;20025;-74
2023/09/15 00:57:51;;;;;;;25.75;18.23;;;;;;;19.14;65.23;102083.69;5030743;28;20033;-73
2023/09/15 01:00:17;;;;;;;25.73;18.92;;;;;;;19.18;64.90;102090.72;5033087;28;20026;-74
2023/09/15 01:02:44;;;;;;;23.40;17.75;;;;;;;18.98;65.81;102090.75;5032501;28;20040;-73
2023/09/15 01:05:20;;;;;;;26.27;18.77;;;;;;;19.05;65.56;102088.09;5033888;28;20396;-73
2023/09/15 01:07:52;;;;;;;23.95;17.48;;;;;;;19.19;64.86;102090.72;5033506;28;20680;-74
2023/09/15 01:10:19;;;;;;;27.58;19.17;;;;;;;19.14;64.97;102088.97;5031611;28;20128;-74
2023/09/15 01:12:49;;;;;;;26.38;18.67;;;;;;;19.09;65.29;102081.03;5033572;28;20041;-74
2023/09/15 01:15:17;;;;;;;26.30;18.73;;;;;;;19.08;65.19;102089.00;5033096;28;20491;-73
2023/09/15 01:17:57;;;;;;;23.08;17.88;;;;;;;19.02;65.43;102076.66;5033472;28;20061;-75
2023/09/15 01:20:41;;;;;;;25.45;17.75;;;;;;;19.02;65.82;102084.59;5033420;28;20029;-74
2023/09/15 01:23:15;;;;;;;;;;;;;;;18.99;65.96;102071.38;5035072;28;20033;-74
2023/09/15 01:25:59;;;;;;;27.08;17.27;;;;;;;19.00;65.64;102073.13;5034337;28;19920;-73
2023/09/15 01:28:43;;;;;;;22.77;16.55;;;;;;;18.94;65.91;102073.16;5032594;28;20495;-74
2023/09/15 01:31:11;;;;;;;22.08;16.65;;;;;;;18.97;65.75;102068.72;5032973;28;20761;-73
2023/09/15 01:33:37;;;;;;;26.13;17.17;;;;;;;18.83;66.61;102067.00;5032980;28;20053;-74
2023/09/15 01:36:12;;;;;;;26.40;17.58;;;;;;;18.70;67.34;102067.91;5033312;28;20038;-74
2023/09/15 01:38:37;;;;;;;24.73;17.80;;;;;;;18.83;66.50;102062.63;5032395;28;20046;-73
2023/09/15 01:41:04;;;;;;;22.58;17.33;;;;;;;18.81;66.54;102064.38;5035580;28;20116;-73
2023/09/15 01:43:29;;;;;;;22.35;16.23;;;;;;;18.86;66.15;102059.06;5033171;28;20034;-74
2023/09/15 01:45:55;;;;;;;23.77;17.60;;;;;;;18.82;66.31;102066.13;5032759;28;20041;-74
2023/09/15 01:48:22;;;;;;;24.85;17.92;;;;;;;18.78;66.60;102058.22;5032440;28;20045;-74
2023/09/15 01:50:48;;;;;;;24.33;17.52;;;;;;;18.86;66.24;102053.78;5032732;28;20057;-74
2023/09/15 01:53:14;;;;;;;25.10;17.88;;;;;;;18.80;66.62;102049.38;5032721;28;20124;-75
2023/09/15 01:55:48;;;;;;;25.50;18.58;;;;;;;18.73;66.90;102060.84;5031707;28;20743;-74
2023/09/15 01:58:13;;;;;;;25.63;18.20;;;;;;;18.85;66.35;102054.66;5032200;28;20037;-74
2023/09/15 02:00:39;;;;;;;25.52;17.77;;;;;;;18.73;66.68;102055.56;5032270;28;20029;-77
2023/09/15 02:03:07;;;;;;;27.00;17.35;;;;;;;18.78;66.35;102048.53;5032371;28;20087;-74
2023/09/15 02:05:35;;;;;;;26.92;18.90;;;;;;;18.69;66.85;102055.56;5032090;28;20045;-74
2023/09/15 02:08:00;;;;;;;25.85;18.42;;;;;;;18.69;66.65;102047.66;5032037;28;20133;-75
2023/09/15 02:10:26;;;;;;;25.05;18.00;;;;;;;18.60;67.18;102043.28;5030448;28;20107;-74
2023/09/15 02:12:51;;;;;;;26.33;18.42;;;;;;;18.56;67.24;102039.75;5032625;28;20558;-75
2023/09/15 02:15:17;;;;;;;25.00;18.52;;;;;;;18.67;67.11;102045.00;5031599;28;20048;-74
2023/09/15 02:17:45;;;;;;;26.65;18.90;;;;;;;18.49;67.55;102042.34;5031535;28;20029;-74
2023/09/15 02:20:14;;;;;;;26.10;18.42;;;;;;;18.43;68.06;102037.06;5031475;28;20052;-76
2023/09/15 02:22:43;;;;;;;25.90;18.52;;;;;;;18.65;67.43;102044.16;5036660;28;20029;-76
2023/09/15 02:25:11;;;;;;;23.90;17.77;;;;;;;18.71;66.63;102038.84;5035107;28;20026;-73
2023/09/15 02:27:38;;;;;;;24.65;17.13;;;;;;;18.66;66.45;102035.34;5031343;28;20119;-73
2023/09/15 02:30:07;;;;;;;25.98;19.63;;;;;;;18.59;66.93;102033.59;5031068;28;20505;-74
2023/09/15 02:32:33;;;;;;;24.08;17.80;;;;;;;18.55;67.10;102035.34;5031560;28;20041;-74
2023/09/15 02:35:01;;;;;;;24.65;17.35;;;;;;;18.52;67.01;102037.97;5031545;28;20021;-74
2023/09/15 02:37:26;;;;;;;28.75;19.77;;;;;;;18.43;67.46;102032.66;5031187;28;20069;-76
2023/09/15 02:39:51;;;;;;;25.58;19.08;;;;;;;18.39;67.57;102036.22;5031105;28;20431;-76
2023/09/15 02:42:17;;;;;;;25.55;18.85;;;;;;;18.37;67.71;102027.41;5030960;28;20565;-76
2023/09/15 02:44:43;;;;;;;26.00;19.10;;;;;;;18.36;67.63;102028.28;5031314;28;20037;-77
2023/09/15 02:47:08;;;;;;;26.45;19.17;;;;;;;18.29;67.72;102026.53;5031223;28;20030;-74
2023/09/15 02:49:33;;;;;;;26.10;18.88;;;;;;;18.23;68.08;102029.19;5030441;28;20065;-74
2023/09/15 02:52:01;;;;;;;25.05;18.15;;;;;;;18.20;68.13;102034.44;5031194;28;20068;-76
2023/09/15 02:54:26;;;;;;;25.80;18.67;;;;;;;18.09;69.29;102036.19;5030406;28;20045;-74
2023/09/15 02:56:55;;;;;;;26.00;18.42;;;;;;;18.16;68.97;102030.03;5031211;28;20029;-76
2023/09/15 02:59:20;;;;;;;26.95;18.65;;;;;;;18.13;68.80;102033.56;5030506;28;20112;-74
2023/09/15 03:01:45;;;;;;;28.02;18.92;;;;;;;18.12;68.89;102033.53;5031207;28;20466;-77
2023/09/15 03:04:19;;;;;;;24.75;18.30;;;;;;;18.08;68.79;102026.50;5031265;28;20033;-74
2023/09/15 03:06:44;;;;;;;25.38;18.65;;;;;;;18.04;68.95;102036.19;5031356;28;20114;-74
2023/09/15 03:09:12;;;;;;;27.52;18.92;;;;;;;18.04;69.18;102033.56;5032479;28;20076;-74
2023/09/15 03:11:37;;;;;;;24.90;18.58;;;;;;;18.04;69.22;102025.66;5032866;28;20095;-74
2023/09/15 03:14:03;;;;;;;27.70;19.25;;;;;;;18.07;68.98;102027.38;5033129;28;20116;-75
2023/09/15 03:16:29;;;;;;;27.60;19.35;;;;;;;17.94;69.70;102021.22;5031389;28;20037;-74
2023/09/15 03:18:54;;;;;;;30.23;19.85;;;;;;;17.56;70.99;102025.50;5030951;28;20495;-74
2023/09/15 03:21:27;;;;;;;26.13;19.27;;;;;;;18.03;69.59;102013.31;5031120;28;20043;-74
2023/09/15 03:24:01;;;;;;;25.65;18.23;;;;;;;18.02;69.75;102010.69;5031696;28;20029;-75
2023/09/15 03:26:27;;;;;;;29.08;18.65;;;;;;;18.13;68.90;102019.47;5031016;28;20041;-75
2023/09/15 03:28:52;;;;;;;27.25;18.63;;;;;;;18.12;68.67;102015.94;5033336;28;20056;-75
2023/09/15 03:31:17;;;;;;;26.55;18.55;;;;;;;18.08;68.90;102011.56;5032489;28;20033;-74
2023/09/15 03:33:43;;;;;;;28.17;18.95;;;;;;;18.07;68.87;102015.06;5031864;28;20038;-76
2023/09/15 03:36:09;;;;;;;26.92;18.73;;;;;;;18.05;69.24;102008.06;5031174;28;20030;-75
2023/09/15 03:38:34;;;;;;;26.85;18.48;;;;;;;18.02;69.21;102010.69;5030215;28;20143;-74
2023/09/15 03:41:05;;;;;;;26.20;18.05;;;;;;;17.81;69.91;102004.47;5030747;28;20037;-74
2023/09/15 03:43:34;;;;;;;26.33;18.23;;;;;;;18.03;69.41;102004.53;5030476;28;20147;-75
2023/09/15 03:45:59;;;;;;;26.85;18.65;;;;;;;17.88;69.78;102005.38;5030956;28;20087;-74
2023/09/15 03:48:33;;;;;;;27.13;18.35;;;;;;;18.04;69.05;102004.53;5029594;28;20037;-74
2023/09/15 03:50:59;;;;;;;26.65;17.75;;;;;;;18.05;68.95;102000.13;5029826;28;20056;-74
2023/09/15 03:53:25;;;;;;;26.88;18.23;;;;;;;18.05;68.69;102001.00;5030004;28;20064;-74
2023/09/15 03:55:51;;;;;;;26.25;17.90;;;;;;;18.02;68.71;102001.00;5030573;28;20388;-75
2023/09/15 03:58:17;;;;;;;26.98;17.55;;;;;;;17.91;69.20;101996.59;5030130;28;20029;-74
2023/09/15 04:00:45;;;;;;;28.27;18.50;;;;;;;17.82;69.75;102000.09;5029939;28;20454;-75
2023/09/15 04:03:14;;;;;;;27.75;18.73;;;;;;;17.96;69.21;101998.34;5028454;28;20490;-74
2023/09/15 04:05:42;;;;;;;25.73;17.35;;;;;;;17.93;69.13;102002.75;5028528;28;20052;-74
2023/09/15 04:08:08;;;;;;;25.50;18.30;;;;;;;17.81;69.56;101995.69;5029933;28;20041;-75
2023/09/15 04:10:33;;;;;;;29.15;18.52;;;;;;;17.66;70.36;101991.28;5026710;28;20368;-74
2023/09/15 04:12:58;;;;;;;25.80;17.70;;;;;;;17.93;69.40;101994.84;5030534;28;20052;-74
2023/09/15 04:15:24;;;;;;;25.95;18.13;;;;;;;17.89;69.47;101993.94;5029586;28;20072;-74
2023/09/15 04:17:54;;;;;;;25.17;17.08;;;;;;;17.97;69.17;101993.97;5029797;28;20021;-74
2023/09/15 04:20:26;;;;;;;31.05;18.20;;;;;;;17.88;69.09;101992.19;5025073;28;20099;-76
2023/09/15 04:22:51;;;;;;;26.40;18.05;;;;;;;17.91;69.11;101991.31;5029578;28;20390;-74
2023/09/15 04:25:16;;;;;;;26.05;17.85;;;;;;;17.88;69.39;101988.66;5027330;28;20042;-75
2023/09/15 04:27:42;;;;;;;28.42;17.75;;;;;;;17.86;69.35;101988.69;5027813;28;20041;-74
2023/09/15 04:30:07;;;;;;;24.92;18.02;;;;;;;17.62;70.11;101989.53;5029426;28;20029;-74
2023/09/15 04:32:33;;;;;;;29.00;18.20;;;;;;;17.36;71.16;101989.41;5028561;28;20092;-74
2023/09/15 04:34:58;;;;;;;26.33;18.52;;;;;;;17.47;71.11;101992.06;5029955;28;20033;-74
2023/09/15 04:37:24;;;;;;;26.25;17.98;;;;;;;17.48;70.98;101991.22;5029018;28;20595;-74
2023/09/15 04:39:49;;;;;;;25.80;17.85;;;;;;;17.71;70.22;101981.63;5029244;28;20104;-75
2023/09/15 04:42:16;;;;;;;28.65;17.95;;;;;;;17.74;69.91;101984.28;5028891;28;20375;-75
2023/09/15 04:44:47;;;;;;;26.15;17.45;;;;;;;17.37;70.73;101996.47;5029213;28;20114;-74
2023/09/15 04:47:13;;;;;;;30.20;19.17;;;;;;;17.51;70.85;101991.19;5029084;28;20084;-74
2023/09/15 04:49:38;;;;;;;26.90;17.70;;;;;;;17.69;70.05;101988.63;5029160;28;20438;-74
2023/09/15 04:52:06;;;;;;;25.42;17.67;;;;;;;17.60;70.32;101986.00;5029549;28;20029;-74
2023/09/15 04:54:35;;;;;;;23.65;17.05;;;;;;;17.70;69.80;101990.41;5028898;28;20058;-75
2023/09/15 04:57:00;;;;;;;24.85;16.95;;;;;;;17.74;69.42;101989.56;5029269;28;20135;-75
2023/09/15 04:59:25;;;;;;;27.45;18.27;;;;;;;17.78;69.43;101985.16;5028444;28;20057;-74
2023/09/15 05:01:51;;;;;;;24.52;17.48;;;;;;;17.75;69.43;101991.28;5029259;28;20034;-75
2023/09/15 05:04:20;;;;;;;26.23;18.13;;;;;;;17.71;69.62;101996.56;5028794;28;20033;-75
2023/09/15 05:06:45;;;;;;;25.08;17.20;;;;;;;17.69;69.92;101995.66;5030057;28;20056;-75
2023/09/15 05:09:10;;;;;;;24.63;17.25;;;;;;;17.55;70.55;101997.38;5029979;28;20487;-74
2023/09/15 05:11:37;;;;;;;27.15;18.13;;;;;;;17.50;71.10;102002.66;5029308;28;21393;-74
2023/09/15 05:14:06;;;;;;;25.38;17.75;;;;;;;17.59;70.27;102007.03;5029388;28;20036;-74
2023/09/15 05:16:32;;;;;;;27.10;17.48;;;;;;;17.61;70.24;102006.22;5026794;28;20037;-74
2023/09/15 05:18:57;;;;;;;24.25;17.38;;;;;;;17.46;70.68;102006.13;5029197;28;20036;-74
2023/09/15 05:21:23;;;;;;;25.13;17.48;;;;;;;17.45;71.10;102012.28;5028241;28;20112;-74
2023/09/15 05:23:51;;;;;;;25.48;18.02;;;;;;;17.36;71.46;102014.91;5029179;28;20034;-75
2023/09/15 05:26:16;;;;;;;26.95;17.23;;;;;;;17.59;70.67;102007.03;5028407;28;20063;-75
2023/09/15 05:28:42;;;;;;;23.33;16.70;;;;;;;17.70;69.64;102008.88;5029054;28;20678;-74
2023/09/15 05:31:07;;;;;;;23.77;17.45;;;;;;;17.55;70.71;102010.56;5028812;28;20119;-74
2023/09/15 05:33:35;;;;;;;25.33;16.98;;;;;;;17.36;71.00;102013.16;5028676;28;20079;-73
2023/09/15 05:36:01;;;;;;;24.88;17.33;;;;;;;17.58;70.68;102007.91;5029028;28;20512;-74
2023/09/15 05:38:30;;;;;;;25.33;17.23;;;;;;;17.76;69.79;102002.72;5028704;28;20057;-74
2023/09/15 05:40:55;;;;;;;23.35;16.92;;;;;;;17.76;69.86;102000.97;5028886;28;20577;-73
2023/09/15 05:43:21;;;;;;;24.42;16.60;;;;;;;17.67;70.01;101994.81;5029047;28;20168;-74
2023/09/15 05:45:47;;;;;;;26.85;17.45;;;;;;;17.64;70.19;102003.56;5032576;28;20120;-73
2023/09/15 05:48:17;;;;;;;25.85;17.00;;;;;;;17.78;69.96;101995.69;5031942;28;20044;-74
2023/09/15 05:50:46;;;;;;;23.55;16.35;;;;;;;17.73;70.01;102000.09;5032459;28;20105;-74
2023/09/15 05:53:11;;;;;;;23.50;16.45;;;;;;;17.78;69.60;102001.84;5033067;28;20045;-74
2023/09/15 05:55:39;;;;;;;24.45;16.67;;;;;;;17.45;70.50;102005.25;5032292;28;20036;-74
2023/09/15 05:58:08;;;;;;;27.13;16.33;;;;;;;17.49;70.34;102003.53;5032410;28;20037;-74
2023/09/15 06:00:33;;;;;;;24.40;16.08;;;;;;;17.27;70.86;102009.56;5031460;28;20041;-73
2023/09/15 06:03:02;;;;;;;23.05;16.52;;;;;;;17.57;70.19;102004.41;5032003;28;20090;-74
2023/09/15 06:05:28;;;;;;;23.65;16.60;;;;;;;17.70;69.60;102007.97;5031772;28;20545;-73
2023/09/15 06:07:54;;;;;;;23.80;16.35;;;;;;;17.95;68.91;102007.16;5031868;28;20172;-74
2023/09/15 06:10:20;;;;;;;23.98;16.33;;;;;;;18.01;68.81;102001.88;5029973;28;20041;-74
2023/09/15 06:12:48;;;;;;;24.13;16.35;;;;;;;17.94;68.90;102012.41;5032470;28;20121;-74
2023/09/15 06:15:14;;;;;;;24.55;16.73;;;;;;;17.94;68.61;102009.78;5032009;28;20120;-74
2023/09/15 06:17:42;;;;;;;22.90;15.38;;;;;;;18.08;68.28;102011.56;5030113;28;20112;-74
2023/09/15 06:20:08;;;;;;;21.42;15.20;;;;;;;18.03;68.50;102010.69;5029754;28;20056;-74
2023/09/15 06:22:34;;;;;;;20.23;14.65;;;;;;;18.18;67.77;102012.44;5031175;28;20487;-74
2023/09/15 06:24:59;;;;;;;22.30;15.38;;;;;;;18.42;67.39;102015.06;5031762;28;20040;-73
2023/09/15 06:27:29;;;;;;;19.95;15.35;;;;;;;18.63;67.40;102022.13;5031626;28;20034;-74
2023/09/15 06:29:55;;;;;;;20.83;14.90;;;;;;;19.01;67.08;102014.13;5031705;28;20112;-73
2023/09/15 06:32:21;;;;;;;19.30;14.50;;;;;;;20.02;64.60;102019.78;5031352;28;20487;-74
2023/09/15 06:34:49;;;;;;;20.67;14.85;;;;;;;21.14;57.86;102018.72;5031785;28;20044;-73
2023/09/15 06:37:14;;;;;;;21.35;15.10;;;;;;;22.21;54.28;102002.19;5031221;28;20034;-74
2023/09/15 06:39:46;;;;;;;21.42;15.93;;;;;;;23.16;51.09;102003.97;5031130;28;20183;-73
2023/09/15 06:42:11;;;;;;;19.80;14.77;;;;;;;23.60;50.08;102003.06;5031561;28;20025;-74
2023/09/15 06:44:36;;;;;;;20.20;14.95;;;;;;;24.22;48.61;101996.22;5031138;28;20033;-74
2023/09/15 06:47:02;;;;;;;17.88;13.57;;;;;;;25.04;45.28;101994.03;5031779;28;20026;-73
2023/09/15 06:49:28;;;;;;;18.85;13.38;;;;;;;25.42;44.17;101983.09;5030745;28;20040;-74
2023/09/15 06:51:54;;;;;;;17.67;13.77;;;;;;;25.54;42.50;101980.97;5031034;28;20061;-74
2023/09/15 06:54:20;;;;;;;23.50;13.75;;;;;;;25.86;40.31;101984.38;5031042;28;20495;-74
2023/09/15 06:56:46;;;;;;;17.92;12.95;;;;;;;25.83;41.84;101988.94;5030587;28;20098;-74
2023/09/15 06:59:18;;;;;;;19.45;14.20;;;;;;;26.30;40.63;101984.72;5031070;28;20518;-74
2023/09/15 07:01:43;;;;;;;17.92;13.55;;;;;;;26.37;40.28;101986.25;5030677;28;20036;-74
2023/09/15 07:04:12;;;;;;;21.67;13.50;;;;;;;26.15;39.67;101986.09;5031610;28;20026;-74
2023/09/15 07:06:41;;;;;;;19.67;13.32;;;;;;;26.15;40.16;101986.09;5030578;28;20037;-74
2023/09/15 07:09:07;;;;;;;18.70;13.30;;;;;;;26.25;39.98;101984.88;5031093;28;20176;-74
2023/09/15 07:11:33;;;;;;;16.25;13.30;;;;;;;26.60;39.63;101986.31;5030241;28;20049;-74
2023/09/15 07:13:59;;;;;;;18.02;13.02;;;;;;;26.78;39.21;101994.59;5030800;28;20029;-74
2023/09/15 07:16:27;;;;;;;16.90;12.85;;;;;;;26.52;39.88;101990.22;5030554;28;20038;-74
2023/09/15 07:18:55;;;;;;;16.92;12.40;;;;;;;26.91;38.12;101993.28;5030641;28;20026;-75
2023/09/15 07:21:20;;;;;;;16.95;12.43;;;;;;;27.24;38.25;102004.53;5030141;28;20568;-73
2023/09/15 07:23:46;;;;;;;17.15;12.80;;;;;;;26.82;38.72;101999.81;5030948;28;20053;-73
2023/09/15 07:26:14;;;;;;;19.95;12.48;;;;;;;27.15;39.04;101992.34;5030551;28;20033;-73
2023/09/15 07:28:39;;;;;;;16.95;12.35;;;;;;;27.47;37.84;101985.75;5030127;28;20040;-73
2023/09/15 07:31:11;;;;;;;16.65;11.80;;;;;;;26.34;39.34;101982.84;5030316;28;20033;-74
2023/09/15 07:33:39;;;;;;;15.23;11.77;;;;;;;25.41;41.78;101978.69;5029728;28;20041;-74
2023/09/15 07:36:05;;;;;;;19.67;13.27;;;;;;;24.31;44.04;101985.34;5030205;28;20041;-74
2023/09/15 07:38:33;;;;;;;19.00;14.25;;;;;;;23.67;46.50;101978.88;5030018;28;20486;-74
2023/09/15 07:40:59;;;;;;;21.77;13.82;;;;;;;22.67;50.08;101983.66;5030141;28;20060;-74
2023/09/15 07:43:24;;;;;;;21.60;13.80;;;;;;;22.36;51.17;101971.81;5030288;28;20112;-74
2023/09/15 07:45:50;;;;;;;23.85;14.15;;;;;;;22.15;52.95;101978.38;5030452;28;20044;-73
2023/09/15 07:48:21;;;;;;;19.63;14.80;;;;;;;21.49;54.35;101978.50;5030048;28;20041;-75
2023/09/15 07:50:47;;;;;;;24.10;15.10;;;;;;;21.28;55.22;101978.81;5029418;28;20040;-74
2023/09/15 07:53:12;;;;;;;21.35;15.45;;;;;;;20.81;57.01;101976.69;5030966;28;20033;-74
2023/09/15 07:55:37;;;;;;;23.60;15.45;;;;;;;21.28;56.64;101973.50;5030214;28;20052;-73
2023/09/15 07:58:03;;;;;;;20.20;14.43;;;;;;;21.58;55.62;101966.88;5030014;28;20546;-73
2023/09/15 08:00:31;;;;;;;23.30;14.82;;;;;;;21.49;55.52;101973.19;5029536;28;20687;-73
2023/09/15 08:02:59;;;;;;;19.00;14.20;;;;;;;21.63;55.96;101968.56;5029963;28;20034;-71
2023/09/15 08:05:29;;;;;;;17.02;13.02;;;;;;;21.98;55.18;101968.03;5029450;28;20057;-72
2023/09/15 08:07:55;;;;;;;19.13;13.60;;;;;;;21.86;55.60;101973.50;5029403;28;20055;-74
2023/09/15 08:10:22;;;;;;;20.80;13.35;;;;;;;21.97;55.35;101968.06;5029568;28;20029;-74
2023/09/15 08:12:52;;;;;;;19.38;14.20;;;;;;;22.10;55.39;101966.94;5030691;28;20063;-74
2023/09/15 08:15:19;;;;;;;18.23;12.85;;;;;;;21.74;55.83;101965.75;5029591;28;20033;-73
2023/09/15 08:17:50;;;;;;;23.40;13.90;;;;;;;22.15;55.04;101967.75;5030087;28;20040;-74
2023/09/15 08:20:19;;;;;;;20.67;13.38;;;;;;;22.48;53.88;101959.19;5029462;28;20033;-73
2023/09/15 08:22:44;;;;;;;17.58;12.30;;;;;;;22.61;53.65;101971.34;5030548;28;20108;-73
2023/09/15 08:25:13;;;;;;;20.10;12.15;;;;;;;22.53;54.09;101965.28;5030317;28;20443;-74
2023/09/15 08:27:47;;;;;;;18.80;11.45;;;;;;;21.83;52.83;101965.63;5030138;28;20037;-74
2023/09/15 08:30:14;;;;;;;15.05;10.30;;;;;;;22.43;52.89;101968.16;5029956;28;20037;-73
2023/09/15 08:32:40;;;;;;;18.40;10.73;;;;;;;22.81;52.36;101967.47;5029841;28;20029;-73
2023/09/15 08:35:08;;;;;;;15.95;11.43;;;;;;;22.78;52.65;101972.81;5030105;28;20033;-73
2023/09/15 08:37:42;;;;;;;15.77;10.32;;;;;;;22.89;52.66;101966.38;5029560;28;20392;-74
2023/09/15 08:40:08;;;;;;;15.80;9.90;;;;;;;22.88;52.60;101966.41;5029414;28;20137;-76
2023/09/15 08:42:33;;;;;;;16.70;10.45;;;;;;;23.06;51.57;101963.38;5029306;28;20124;-73
2023/09/15 08:45:00;;;;;;;13.95;10.02;;;;;;;23.26;51.57;101962.97;5029763;28;20076;-74
2023/09/15 08:47:31;;;;;;;15.95;9.45;;;;;;;23.33;50.75;101962.78;5028774;28;20068;-71
2023/09/15 08:49:58;;;;;;;13.38;9.07;;;;;;;23.22;50.48;101962.16;5028632;28;20095;-71
2023/09/15 08:52:27;;;;;;;13.23;8.82;;;;;;;23.13;50.88;101964.13;5028523;28;20033;-71
2023/09/15 08:55:00;;;;;;;11.90;8.95;;;;;;;23.27;50.64;101964.72;5029337;28;20028;-72
2023/09/15 08:57:36;;;;;;;12.95;9.07;;;;;;;23.34;49.27;101969.88;5028615;28;20048;-72
2023/09/15 09:00:02;;;;;;;12.27;8.70;;;;;;;23.48;49.00;101964.28;5029315;28;20036;-72
2023/09/15 09:02:28;;;;;;;11.45;7.97;;;;;;;23.70;48.95;101962.88;5029017;28;20068;-72
2023/09/15 09:04:59;;;;;;;11.02;7.32;;;;;;;23.51;49.16;101961.53;5029413;28;20053;-72
2023/09/15 09:07:28;;;;;;;10.57;7.25;;;;;;;23.62;49.25;101955.94;5028542;28;20048;-71
2023/09/15 09:09:54;;;;;;;11.63;7.18;;;;;;;23.64;48.38;101952.34;5028945;28;20556;-72
2023/09/15 09:12:20;;;;;;;9.75;6.80;;;;;;;23.82;49.06;101949.25;5027953;28;20643;-71
2023/09/15 09:14:55;;;;;;;11.95;7.60;;;;;;;23.62;48.03;101945.31;5029135;28;20057;-71
2023/09/15 09:17:23;;;;;;;13.13;8.80;;;;;;;23.96;47.96;101943.59;5028568;28;20120;-72
2023/09/15 09:19:54;;;;;;;14.40;10.65;;;;;;;23.52;48.56;101938.47;5031377;28;20033;-71
2023/09/15 09:22:20;;;;;;;19.58;11.40;;;;;;;23.76;48.49;101932.53;5031905;28;20033;-72
2023/09/15 09:24:57;;;;;;;18.55;12.18;;;;;;;24.23;47.20;101934.91;5032841;28;20545;-71
2023/09/15 09:27:34;;;;;;;15.50;11.27;;;;;;;24.11;48.34;101940.53;5031694;28;20041;-71
2023/09/15 09:30:00;;;;;;;16.05;11.65;;;;;;;23.85;49.04;101934.97;5032282;28;20041;-71
2023/09/15 09:32:26;;;;;;;15.05;10.63;;;;;;;23.98;48.04;101940.88;5031767;28;20033;-72
2023/09/15 09:34:57;;;;;;;17.70;11.55;;;;;;;23.73;47.00;101930.81;5032814;28;20562;-71
2023/09/15 09:37:30;;;;;;;15.70;10.68;;;;;;;23.45;46.18;101919.06;5031597;28;20052;-72
2023/09/15 09:39:59;;;;;;;18.45;10.57;;;;;;;24.15;45.67;101920.03;5031990;28;20033;-71
2023/09/15 09:42:24;;;;;;;13.20;9.93;;;;;;;24.31;45.90;101918.72;5031488;28;20033;-72
2023/09/15 09:45:00;;;;;;;16.48;10.23;;;;;;;24.72;44.03;101912.22;5032275;28;20170;-72
2023/09/15 09:47:29;;;;;;;14.40;10.07;;;;;;;24.70;44.79;101922.09;5032077;28;20475;-72
2023/09/15 09:49:57;;;;;;;13.93;9.63;;;;;;;24.94;44.87;101912.53;5032473;28;20116;-72
2023/09/15 09:52:29;;;;;;;16.23;10.88;;;;;;;24.83;45.41;101914.56;5031954;28;20036;-72
2023/09/15 09:55:05;;;;;;;18.52;11.90;;;;;;;24.50;45.64;101919.09;5032754;28;20079;-72
2023/09/15 09:57:33;;;;;;;17.23;12.07;;;;;;;24.52;45.87;101920.78;5031515;28;20034;-72
2023/09/15 09:59:59;;;;;;;15.68;11.48;;;;;;;24.76;45.31;101915.69;5031857;28;20642;-72
2023/09/15 10:02:27;;;;;;;14.65;10.93;;;;;;;24.97;44.78;101912.41;5022401;28;20099;-72
2023/09/15 10:04:56;;;;;;;16.38;11.05;;;;;;;24.85;44.32;101910.06;5043827;28;20119;-73
2023/09/15 10:07:22;;;;;;;17.02;11.93;;;;;;;24.66;44.84;101915.94;5031289;28;20034;-73
2023/09/15 10:09:58;;;;;;;15.48;11.52;;;;;;;24.75;43.68;101914.81;5031621;28;20037;-73
2023/09/15 10:12:26;;;;;;;18.55;11.63;;;;;;;24.92;44.27;101906.34;5031387;28;20024;-73
2023/09/15 10:14:58;;;;;;;14.27;10.90;;;;;;;24.63;44.66;101910.72;5031581;28;20510;-73
2023/09/15 10:17:27;;;;;;;15.75;10.90;;;;;;;24.75;45.81;101912.16;5031146;28;20227;-73
2023/09/15 10:19:56;;;;;;;15.95;10.43;;;;;;;24.65;44.52;101916.84;5031139;28;20034;-71
2023/09/15 10:22:21;;;;;;;15.05;10.02;;;;;;;24.50;43.55;101906.63;5031191;28;20395;-71
2023/09/15 10:24:57;;;;;;;14.38;10.35;;;;;;;24.73;44.27;101897.97;5031517;28;20030;-70
2023/09/15 10:27:23;;;;;;;18.20;11.63;;;;;;;24.69;44.25;101893.66;5031154;28;20037;-70
2023/09/15 10:29:51;;;;;;;17.88;11.02;;;;;;;24.79;43.45;101887.13;5030889;28;20083;-73
2023/09/15 10:32:17;;;;;;;15.30;10.90;;;;;;;24.53;44.04;101892.34;5030701;28;20033;-70
2023/09/15 10:34:54;;;;;;;15.88;11.45;;;;;;;24.70;44.69;101883.88;5031810;28;20037;-71
2023/09/15 10:37:23;;;;;;;14.73;10.48;;;;;;;25.00;43.36;101875.88;5030672;28;20022;-70
2023/09/15 10:39:57;;;;;;;15.50;11.88;;;;;;;25.01;42.30;101872.25;5031616;28;20041;-71
2023/09/15 10:42:29;;;;;;;15.63;11.23;;;;;;;24.88;43.44;101880.66;5031669;28;20060;-71
2023/09/15 10:45:08;;;;;;;17.88;12.75;;;;;;;24.95;43.05;101875.09;5031970;28;20041;-71
2023/09/15 10:47:36;;;;;;;21.63;11.82;;;;;;;25.23;42.40;101871.59;5031156;28;20708;-72
2023/09/15 10:50:11;;;;;;;16.48;10.93;;;;;;;25.09;42.17;101865.81;5031258;28;20034;-71
2023/09/15 10:52:39;;;;;;;16.52;11.45;;;;;;;24.96;42.48;101874.19;5030989;28;20491;-71
2023/09/15 10:55:07;;;;;;;16.70;10.98;;;;;;;25.10;42.14;101863.09;5031705;28;20553;-71
2023/09/15 10:57:42;;;;;;;17.80;12.20;;;;;;;24.62;43.36;101870.75;5030959;28;20060;-74
2023/09/15 11:00:11;;;;;;;16.42;11.25;;;;;;;25.13;41.86;101867.47;5031339;28;20049;-74
2023/09/15 11:02:39;;;;;;;15.30;11.32;;;;;;;25.08;42.48;101856.03;5031468;28;20041;-72
2023/09/15 11:05:08;;;;;;;12.90;10.30;;;;;;;25.25;42.33;101846.59;5031570;28;20124;-73
2023/09/15 11:07:37;;;;;;;16.75;11.98;;;;;;;24.87;42.10;101850.44;5029954;28;20053;-73
2023/09/15 11:10:05;;;;;;;15.73;11.68;;;;;;;24.74;42.57;101841.06;5030589;28;20044;-72
2023/09/15 11:12:31;;;;;;;13.30;9.40;;;;;;;25.03;43.14;101843.72;5030189;28;20056;-72